Time;durP1;ratioP1;P1;durP2;ratioP2;P2;SDS_P1;SDS_P2;PMS_P1;PMS_P2;Temp;Humidity;BMP_temperature;BMP_pressure;BME280_temperature;BME280_humidity;BME280_pressure;Samples;Min_cycle;Max_cycle;Signal;HPM_P1;HPM_P2
2022/06/25 00:01:03;;;;;;;18.83;9.63;;;589.00;2432.00;;;;;;4954153;29;20026;-76
2022/06/25 00:03:29;;;;;;;16.00;9.32;;;589.00;2432.00;;;;;;4953867;29;20033;-76
2022/06/25 00:05:55;;;;;;;23.50;9.73;;;588.80;2432.00;;;;;;4954023;28;20035;-76
2022/06/25 00:08:21;;;;;;;18.88;9.75;;;564.10;2432.00;;;;;;4953775;29;20016;-76
2022/06/25 00:10:46;;;;;;;22.85;9.63;;;564.00;2432.00;;;;;;4953746;28;20212;-76
2022/06/25 00:13:12;;;;;;;15.90;9.95;;;564.00;2432.00;;;;;;4954023;29;20022;-76
2022/06/25 00:15:38;;;;;;;15.77;9.82;;;564.10;2432.00;;;;;;4953431;28;20058;-76
2022/06/25 00:18:03;;;;;;;16.33;9.35;;;564.00;2432.00;;;;;;4953740;28;20023;-76
2022/06/25 00:20:29;;;;;;;19.05;9.65;;;564.10;2432.00;;;;;;4953632;28;20023;-76
2022/06/25 00:22:55;;;;;;;17.90;9.02;;;564.00;2432.00;;;;;;4936514;29;20544;-76
2022/06/25 00:25:21;;;;;;;17.85;9.80;;;563.90;2432.00;;;;;;4936029;29;20035;-76
2022/06/25 00:27:46;;;;;;;16.83;10.27;;;564.00;2432.00;;;;;;4936757;29;20425;-76
2022/06/25 00:30:12;;;;;;;19.52;10.05;;;564.10;2432.00;;;;;;4953333;28;20497;-76
2022/06/25 00:32:38;;;;;;;20.88;10.48;;;564.00;2432.00;;;;;;4953635;28;20466;-77
2022/06/25 00:35:04;;;;;;;21.85;10.25;;;564.10;2432.00;;;;;;4953500;29;20438;-76
2022/06/25 00:37:30;;;;;;;15.68;9.65;;;564.00;2432.00;;;;;;4953666;29;20548;-76
2022/06/25 00:39:56;;;;;;;18.60;10.23;;;564.00;2432.00;;;;;;4953640;28;20037;-76
2022/06/25 00:42:22;;;;;;;19.48;10.75;;;563.90;2432.00;;;;;;4953337;28;20023;-76
2022/06/25 00:44:47;;;;;;;18.20;10.38;;;564.00;2432.00;;;;;;4953593;28;20449;-76
2022/06/25 00:47:14;;;;;;;20.52;9.88;;;563.80;2432.00;;;;;;4936001;29;20019;-76
2022/06/25 00:49:41;;;;;;;20.08;9.32;;;564.10;2432.00;;;;;;4953421;28;20031;-76
2022/06/25 00:52:13;;;;;;;14.60;8.90;;;563.70;2432.00;;;;;;4936157;29;20051;-76
2022/06/25 00:54:45;;;;;;;11.82;8.00;;;563.60;2432.00;;;;;;4936362;29;20032;-76
2022/06/25 00:57:16;;;;;;;20.77;9.02;;;563.50;2432.00;;;;;;4953142;29;20116;-76
2022/06/25 00:59:44;;;;;;;21.48;9.80;;;563.40;2432.00;;;;;;4953262;29;20016;-76
2022/06/25 01:02:10;;;;;;;17.02;8.75;;;563.40;2432.00;;;;;;4953329;28;20062;-76
2022/06/25 01:04:39;;;;;;;15.07;7.68;;;563.30;2432.00;;;;;;4953083;29;20397;-76
2022/06/25 01:07:08;;;;;;;13.07;8.55;;;563.40;2432.00;;;;;;4951211;29;20272;-76
2022/06/25 01:09:36;;;;;;;16.30;9.07;;;563.40;2432.00;;;;;;4953575;28;20015;-76
2022/06/25 01:12:02;;;;;;;16.40;8.40;;;563.20;2432.00;;;;;;4957101;28;20082;-76
2022/06/25 01:14:28;;;;;;;13.77;8.23;;;563.20;2432.00;;;;;;4939395;29;20032;-76
2022/06/25 01:16:53;;;;;;;12.65;7.22;;;563.30;2432.00;;;;;;4939146;29;20496;-76
2022/06/25 01:19:19;;;;;;;16.83;8.95;;;563.40;2432.00;;;;;;4956937;28;20027;-76
2022/06/25 01:21:45;;;;;;;12.23;8.57;;;563.40;2432.00;;;;;;4939275;29;20023;-76
2022/06/25 01:24:14;;;;;;;13.02;8.68;;;563.40;2432.00;;;;;;4939314;28;20031;-76
2022/06/25 01:26:41;;;;;;;20.60;9.35;;;563.40;2432.00;;;;;;4956479;29;20389;-76
2022/06/25 01:29:08;;;;;;;13.30;8.90;;;563.40;2432.00;;;;;;4956660;29;20023;-76
2022/06/25 01:31:34;;;;;;;12.30;8.45;;;563.50;2432.00;;;;;;4956333;29;20031;-76
2022/06/25 01:34:00;;;;;;;15.52;9.52;;;563.60;2432.00;;;;;;4956630;29;20026;-76
2022/06/25 01:36:26;;;;;;;17.27;10.15;;;563.60;2432.00;;;;;;4956437;28;20113;-76
2022/06/25 01:38:52;;;;;;;15.60;9.63;;;563.70;2432.00;;;;;;4956432;28;20431;-76
2022/06/25 01:41:18;;;;;;;16.52;9.95;;;563.50;2432.00;;;;;;4956424;29;20105;-76
2022/06/25 01:43:44;;;;;;;16.58;10.32;;;563.60;2432.00;;;;;;4938934;29;20109;-76
2022/06/25 01:46:10;;;;;;;18.65;9.75;;;563.60;2432.00;;;;;;4956251;29;20027;-76
2022/06/25 01:48:36;;;;;;;20.65;12.30;;;563.60;2432.00;;;;;;4956245;29;20023;-76
2022/06/25 01:51:03;;;;;;;16.70;10.55;;;563.50;2432.00;;;;;;4956310;28;20035;-76
2022/06/25 01:53:30;;;;;;;17.52;11.13;;;563.40;2432.00;;;;;;4938971;29;20049;-76
2022/06/25 01:55:56;;;;;;;18.83;11.52;;;563.40;2432.00;;;;;;4956051;29;20043;-76
2022/06/25 01:58:22;;;;;;;21.25;11.45;;;563.40;2432.00;;;;;;4955902;29;20035;-76
2022/06/25 02:00:48;;;;;;;19.30;11.73;;;563.20;2432.00;;;;;;4956025;29;20026;-76
2022/06/25 02:03:14;;;;;;;20.25;11.30;;;563.30;2432.00;;;;;;4955975;29;20019;-76
2022/06/25 02:05:57;;;;;;;22.38;11.07;;;563.20;2432.00;;;;;;4955894;28;20043;-76
2022/06/25 02:08:36;;;;;;;21.00;12.50;;;563.20;2432.00;;;;;;4955602;28;20011;-76
2022/06/25 02:11:05;;;;;;;18.23;10.82;;;538.50;2406.40;;;;;;4955751;28;20027;-76
2022/06/25 02:13:31;;;;;;;28.40;11.88;;;563.20;2432.00;;;;;;4938593;29;20390;-75
2022/06/25 02:15:58;;;;;;;18.27;11.27;;;563.20;2432.00;;;;;;4955494;29;20027;-76
2022/06/25 02:18:24;;;;;;;20.73;11.70;;;563.20;2432.00;;;;;;4938404;29;20020;-75
2022/06/25 02:20:51;;;;;;;18.92;11.80;;;538.50;2406.40;;;;;;4938460;29;20030;-76
2022/06/25 02:23:18;;;;;;;20.15;11.82;;;538.40;2406.40;;;;;;4938340;28;20477;-76
2022/06/25 02:25:44;;;;;;;23.67;12.15;;;538.30;2406.40;;;;;;4955568;29;20086;-76
2022/06/25 02:28:10;;;;;;;21.08;12.65;;;538.30;2406.40;;;;;;4955397;29;20035;-76
2022/06/25 02:30:37;;;;;;;22.67;13.98;;;538.30;2406.40;;;;;;4955639;29;20030;-76
2022/06/25 02:33:03;;;;;;;25.95;13.13;;;538.20;2406.40;;;;;;4955246;29;20030;-75
2022/06/25 02:35:29;;;;;;;24.15;13.73;;;538.20;2406.40;;;;;;4955568;28;20023;-76
2022/06/25 02:37:55;;;;;;;24.35;14.00;;;538.20;2406.40;;;;;;4955200;28;20038;-76
2022/06/25 02:40:21;;;;;;;22.05;12.55;;;538.20;2406.40;;;;;;4955567;29;20026;-75
2022/06/25 02:42:47;;;;;;;23.25;13.15;;;538.20;2406.40;;;;;;4955291;29;20027;-76
2022/06/25 02:45:13;;;;;;;21.67;14.85;;;538.20;2406.40;;;;;;4955124;28;20454;-76
2022/06/25 02:47:39;;;;;;;20.00;13.02;;;538.10;2406.40;;;;;;4937967;29;20027;-76
2022/06/25 02:50:06;;;;;;;24.77;14.05;;;538.10;2406.40;;;;;;4954948;29;20477;-76
2022/06/25 02:52:31;;;;;;;27.73;13.75;;;538.20;2406.40;;;;;;4955243;28;20098;-76
2022/06/25 02:54:57;;;;;;;24.02;13.93;;;538.10;2406.40;;;;;;4954574;29;20450;-75
2022/06/25 03:00:09;;;;;;;23.50;13.38;;;538.20;2406.40;;;;;;4955096;28;20037;-75
2022/06/25 03:02:35;;;;;;;26.05;15.23;;;538.10;2406.40;;;;;;4936905;29;20039;-76
2022/06/25 03:05:00;;;;;;;29.63;14.02;;;537.90;2406.40;;;;;;4954804;29;20028;-76
2022/06/25 03:07:26;;;;;;;25.35;14.75;;;538.00;2406.40;;;;;;4954753;28;20031;-76
2022/06/25 03:09:52;;;;;;;24.75;13.15;;;537.90;2406.40;;;;;;4937691;29;20413;-76
2022/06/25 03:12:18;;;;;;;21.27;13.95;;;538.10;2406.40;;;;;;4954393;29;20020;-76
2022/06/25 03:14:44;;;;;;;25.17;14.15;;;538.00;2406.40;;;;;;4937303;29;20449;-76
2022/06/25 03:17:09;;;;;;;26.77;14.25;;;538.10;2406.40;;;;;;4936663;29;20393;-75
2022/06/25 03:19:36;;;;;;;20.27;12.80;;;538.20;2406.40;;;;;;4954748;29;20035;-75
2022/06/25 03:22:02;;;;;;;25.48;14.43;;;538.20;2406.40;;;;;;4954349;29;20020;-76
2022/06/25 03:24:28;;;;;;;21.13;12.18;;;538.20;2406.40;;;;;;4954145;28;20027;-76
2022/06/25 03:26:54;;;;;;;20.88;13.48;;;538.20;2406.40;;;;;;4954602;29;20063;-76
2022/06/25 03:29:19;;;;;;;25.05;14.15;;;538.10;2406.40;;;;;;4954017;29;20043;-76
2022/06/25 03:31:45;;;;;;;22.30;13.20;;;538.00;2406.40;;;;;;4954190;28;20034;-75
2022/06/25 03:34:11;;;;;;;23.65;13.95;;;538.00;2406.40;;;;;;4936509;29;20026;-76
2022/06/25 03:36:37;;;;;;;22.85;13.00;;;538.00;2406.40;;;;;;4954354;29;20102;-76
2022/06/25 03:39:04;;;;;;;27.25;14.27;;;537.90;2406.40;;;;;;4954079;28;20023;-76
2022/06/25 03:41:33;;;;;;;20.67;12.70;;;538.20;2406.40;;;;;;4954386;29;20098;-76
2022/06/25 03:43:59;;;;;;;19.10;12.00;;;538.10;2406.40;;;;;;4954056;28;20034;-76
2022/06/25 03:46:25;;;;;;;20.50;12.77;;;538.00;2406.40;;;;;;4954316;29;20042;-76
2022/06/25 03:48:52;;;;;;;24.35;13.23;;;538.10;2406.40;;;;;;4951568;29;20055;-76
2022/06/25 03:51:18;;;;;;;24.02;13.27;;;538.10;2406.40;;;;;;4953956;29;20027;-76
2022/06/25 03:53:44;;;;;;;21.35;13.05;;;538.10;2406.40;;;;;;4954167;29;20035;-76
2022/06/25 03:56:09;;;;;;;23.25;13.55;;;538.00;2406.40;;;;;;4953510;28;20035;-75
2022/06/25 03:58:35;;;;;;;23.17;14.27;;;538.00;2406.40;;;;;;4954056;29;20378;-75
2022/06/25 04:01:01;;;;;;;21.83;13.63;;;538.00;2406.40;;;;;;4936507;29;20075;-76
2022/06/25 04:03:27;;;;;;;21.10;13.48;;;538.00;2406.40;;;;;;4953906;29;20023;-76
2022/06/25 04:05:53;;;;;;;22.23;13.50;;;538.10;2406.40;;;;;;4936647;29;20441;-76
2022/06/25 04:08:19;;;;;;;25.13;13.68;;;538.10;2406.40;;;;;;4953992;29;20031;-76
2022/06/25 04:10:44;;;;;;;24.38;13.35;;;538.10;2406.40;;;;;;4935705;29;20027;-75
2022/06/25 04:13:10;;;;;;;24.40;12.88;;;538.10;2406.40;;;;;;4953804;29;20389;-75
2022/06/25 04:15:37;;;;;;;25.60;12.88;;;538.20;2406.40;;;;;;4953625;28;20023;-76
2022/06/25 04:18:04;;;;;;;23.02;12.13;;;538.10;2406.40;;;;;;4953346;29;20462;-76
2022/06/25 04:20:30;;;;;;;17.90;10.77;;;538.30;2406.40;;;;;;4953541;28;20090;-76
2022/06/25 04:22:55;;;;;;;21.85;11.18;;;538.30;2406.40;;;;;;4953539;28;20023;-76
2022/06/25 04:25:21;;;;;;;21.20;12.60;;;563.20;2432.00;;;;;;4935885;29;20051;-75
2022/06/25 04:30:32;;;;;;;25.83;11.80;;;563.30;2432.00;;;;;;4953736;29;20042;-75
2022/06/25 04:32:57;;;;;;;18.73;10.05;;;563.50;2432.00;;;;;;4952527;29;20031;-75
2022/06/25 04:35:23;;;;;;;18.20;9.50;;;563.70;2432.00;;;;;;4953365;28;20023;-75
2022/06/25 04:37:49;;;;;;;22.45;10.15;;;564.00;2432.00;;;;;;4936240;28;20113;-75
2022/06/25 04:40:15;;;;;;;14.23;9.80;;;564.10;2432.00;;;;;;4952972;28;20046;-75
2022/06/25 04:42:40;;;;;;;14.02;8.63;;;564.10;2432.00;;;;;;4953543;29;20062;-75
2022/06/25 04:45:06;;;;;;;16.40;9.05;;;563.90;2432.00;;;;;;4939301;29;20086;-76
2022/06/25 04:47:32;;;;;;;17.08;9.05;;;588.80;2432.00;;;;;;4957172;29;20097;-76
2022/06/25 04:49:58;;;;;;;21.33;10.23;;;588.90;2432.00;;;;;;4939715;29;20114;-74
2022/06/25 04:52:24;;;;;;;17.73;9.77;;;588.90;2432.00;;;;;;4957450;28;20484;-75
2022/06/25 04:54:50;;;;;;;14.48;9.23;;;589.00;2432.00;;;;;;4956884;29;20489;-75
2022/06/25 04:57:16;;;;;;;12.90;7.78;;;589.00;2432.00;;;;;;4957092;28;20075;-74
2022/06/25 04:59:41;;;;;;;114.93;17.00;;;589.10;2432.00;;;;;;4956760;29;20107;-75
2022/06/25 05:02:07;;;;;;;12.85;7.82;;;589.30;2432.00;;;;;;4956953;29;20027;-75
2022/06/25 05:04:33;;;;;;;46.67;10.35;;;589.50;2432.00;;;;;;4956875;29;20042;-75
2022/06/25 05:06:59;;;;;;;86.15;12.25;;;589.60;2432.00;;;;;;4939511;29;20023;-75
2022/06/25 05:09:26;;;;;;;17.88;8.80;;;589.50;2432.00;;;;;;4957161;29;20015;-73
2022/06/25 05:11:51;;;;;;;9.35;7.50;;;589.60;2432.00;;;;;;4956623;29;20388;-75
2022/06/25 05:14:17;;;;;;;12.75;7.38;;;589.60;2432.00;;;;;;4957012;29;20019;-74
2022/06/25 05:16:45;;;;;;;12.00;7.47;;;589.60;2432.00;;;;;;4956713;28;20030;-74
2022/06/25 05:19:11;;;;;;;11.90;7.00;;;589.60;2432.00;;;;;;4956628;28;20030;-75
2022/06/25 05:21:37;;;;;;;12.73;8.57;;;589.70;2432.00;;;;;;4953996;29;20027;-75
2022/06/25 05:24:04;;;;;;;8.98;6.50;;;614.40;2432.00;;;;;;4956756;29;20026;-74
2022/06/25 05:26:30;;;;;;;9.68;7.07;;;614.50;2432.00;;;;;;4956389;28;20507;-74
2022/06/25 05:28:55;;;;;;;9.73;6.90;;;614.60;2432.00;;;;;;4956448;29;20027;-74
2022/06/25 05:31:21;;;;;;;13.35;7.03;;;614.60;2432.00;;;;;;4956620;29;20023;-73
2022/06/25 05:33:47;;;;;;;8.65;7.05;;;614.70;2432.00;;;;;;4956228;29;20081;-74
2022/06/25 05:36:13;;;;;;;11.63;6.68;;;614.80;2432.00;;;;;;4956976;28;20027;-72
2022/06/25 05:38:38;;;;;;;10.77;7.15;;;614.80;2432.00;;;;;;4956244;28;20027;-72
2022/06/25 05:41:10;;;;;;;13.70;7.25;;;614.90;2432.00;;;;;;4956451;29;20477;-74
2022/06/25 05:43:39;;;;;;;8.30;6.40;;;615.00;2432.00;;;;;;4955955;28;20030;-75
2022/06/25 05:46:05;;;;;;;11.80;6.20;;;615.20;2432.00;;;;;;4939299;29;20047;-75
2022/06/25 05:48:32;;;;;;;9.65;6.47;;;615.30;2432.00;;;;;;4956033;29;20022;-75
2022/06/25 05:50:58;;;;;;;12.60;6.65;;;640.00;2432.00;;;;;;4953511;28;20489;-73
2022/06/25 05:53:24;;;;;;;25.67;7.32;;;640.20;2432.00;;;;;;4956121;29;20023;-74
2022/06/25 05:55:51;;;;;;;9.13;5.78;;;640.40;2432.00;;;;;;4955092;28;20057;-74
2022/06/25 05:58:16;;;;;;;8.73;6.30;;;640.50;2432.00;;;;;;4956099;29;20470;-74
2022/06/25 06:00:43;;;;;;;14.75;7.22;;;640.60;2406.40;;;;;;4955954;29;20035;-75
2022/06/25 06:03:09;;;;;;;8.45;7.00;;;640.70;2380.80;;;;;;4938726;29;20078;-74
2022/06/25 06:05:35;;;;;;;10.68;5.75;;;640.80;2432.00;;;;;;4938458;29;20481;-75
2022/06/25 06:08:04;;;;;;;13.38;6.20;;;640.90;2380.80;;;;;;4955798;28;20019;-74
2022/06/25 06:10:30;;;;;;;15.32;6.63;;;665.60;2355.20;;;;;;4955702;28;20030;-75
2022/06/25 06:12:55;;;;;;;8.05;6.65;;;665.60;2380.80;;;;;;4955270;28;20019;-74
2022/06/25 06:15:21;;;;;;;8.48;6.25;;;665.80;2432.00;;;;;;4938380;28;20050;-75
2022/06/25 06:17:47;;;;;;;7.93;6.90;;;665.90;2432.00;;;;;;4932504;29;20123;-75
2022/06/25 06:20:13;;;;;;;24.05;8.10;;;666.10;2406.40;;;;;;4949178;28;20039;-75
2022/06/25 06:22:38;;;;;;;8.40;6.57;;;666.20;2406.40;;;;;;4955719;28;20030;-75
2022/06/25 06:25:05;;;;;;;12.63;7.30;;;666.40;2329.60;;;;;;4928294;29;20062;-75
2022/06/25 06:27:30;;;;;;;118.05;12.38;;;666.50;2380.80;;;;;;4952728;28;20035;-75
2022/06/25 06:29:56;;;;;;;13.30;7.25;;;691.20;2406.40;;;;;;4938943;29;20046;-75
2022/06/25 06:32:22;;;;;;;12.55;7.32;;;691.30;2278.40;;;;;;4955484;28;20031;-74
2022/06/25 06:34:47;;;;;;;8.50;7.00;;;691.50;2252.80;;;;;;4955741;28;20057;-72
2022/06/25 06:37:14;;;;;;;6.70;5.55;;;691.60;2278.40;;;;;;4955415;29;20027;-75
2022/06/25 06:39:40;;;;;;;9.80;5.30;;;691.80;2048.00;;;;;;4955604;28;20030;-75
2022/06/25 06:42:06;;;;;;;7.55;6.10;;;691.80;1996.80;;;;;;4955450;29;20382;-75
2022/06/25 06:44:31;;;;;;;9.38;5.82;;;692.00;1996.80;;;;;;4954882;29;20500;-74
2022/06/25 06:46:57;;;;;;;9.45;5.53;;;691.90;1996.80;;;;;;4955395;28;20036;-74
2022/06/25 06:49:23;;;;;;;11.10;6.38;;;691.90;1996.80;;;;;;4954861;29;20030;-76
2022/06/25 06:51:49;;;;;;;12.13;5.78;;;692.00;1996.80;;;;;;4955417;28;20054;-75
2022/06/25 06:54:14;;;;;;;8.30;5.45;;;692.10;2022.40;;;;;;4954660;28;20031;-76
2022/06/25 06:56:40;;;;;;;16.30;6.45;;;716.80;2048.00;;;;;;4954859;28;20412;-75
2022/06/25 06:59:06;;;;;;;9.85;6.20;;;717.00;2048.00;;;;;;4954680;28;20037;-74
2022/06/25 07:01:32;;;;;;;7.20;5.82;;;717.10;2048.00;;;;;;4955213;29;20023;-75
2022/06/25 07:03:58;;;;;;;18.67;6.15;;;717.40;1945.60;;;;;;4937496;29;20023;-75
2022/06/25 07:06:23;;;;;;;11.68;6.43;;;717.30;1945.60;;;;;;4937674;28;20053;-74
2022/06/25 07:08:49;;;;;;;9.90;5.75;;;717.50;1945.60;;;;;;4953701;29;20521;-78
2022/06/25 07:11:30;;;;;;;10.30;6.07;;;717.50;1920.00;;;;;;4954475;28;20023;-74
2022/06/25 07:14:04;;;;;;;23.60;6.53;;;717.50;1945.60;;;;;;4953157;29;20085;-76
2022/06/25 07:16:31;;;;;;;12.75;6.00;;;717.60;1996.80;;;;;;4954827;28;20028;-76
2022/06/25 07:18:59;;;;;;;7.95;5.53;;;717.70;1920.00;;;;;;4937589;29;20039;-75
2022/06/25 07:21:26;;;;;;;6.97;5.10;;;717.70;1843.20;;;;;;4954610;28;20473;-75
2022/06/25 07:23:52;;;;;;;8.65;5.38;;;742.40;1843.20;;;;;;4954707;29;20038;-75
2022/06/25 07:26:20;;;;;;;10.02;5.72;;;742.40;1792.00;;;;;;4954671;28;20043;-75
2022/06/25 07:28:46;;;;;;;6.47;4.63;;;742.50;1817.60;;;;;;4937424;29;20035;-74
2022/06/25 07:31:11;;;;;;;7.78;4.78;;;742.50;1740.80;;;;;;4954668;28;20497;-75
2022/06/25 07:33:37;;;;;;;7.32;5.35;;;742.60;1689.60;;;;;;4954489;28;20023;-75
2022/06/25 07:36:03;;;;;;;17.20;5.60;;;742.70;1740.80;;;;;;4954499;28;20058;-76
2022/06/25 07:38:29;;;;;;;8.52;5.18;;;742.80;1740.80;;;;;;4954292;28;20029;-74
2022/06/25 07:40:55;;;;;;;8.43;5.70;;;742.90;1766.40;;;;;;4954354;28;20380;-75
2022/06/25 07:43:21;;;;;;;7.00;5.47;;;742.90;1766.40;;;;;;4954028;28;20030;-74
2022/06/25 07:45:47;;;;;;;6.20;5.05;;;743.00;1766.40;;;;;;4954158;29;20042;-74
2022/06/25 07:48:13;;;;;;;8.88;4.72;;;743.20;1766.40;;;;;;4953915;29;20054;-73
2022/06/25 07:53:22;;;;;;;13.43;6.45;;;768.10;1740.80;;;;;;4952750;28;20537;-75
2022/06/25 07:55:48;;;;;;;7.93;5.10;;;768.10;1587.20;;;;;;4953466;29;20138;-75
2022/06/25 07:58:14;;;;;;;7.22;4.50;;;768.10;1664.00;;;;;;4951442;29;20099;-75
2022/06/25 08:00:39;;;;;;;9.88;4.85;;;768.10;1587.20;;;;;;4953598;29;20050;-75
2022/06/25 08:03:05;;;;;;;6.25;4.93;;;768.20;1612.80;;;;;;4954372;28;20019;-75
2022/06/25 08:05:33;;;;;;;6.13;4.57;;;768.20;1587.20;;;;;;4953544;28;20086;-76
2022/06/25 08:08:00;;;;;;;6.18;4.43;;;768.20;1561.60;;;;;;4953722;29;20090;-76
2022/06/25 08:10:25;;;;;;;7.80;5.15;;;768.30;1536.00;;;;;;4953895;28;20493;-78
2022/06/25 08:12:51;;;;;;;8.05;4.70;;;768.50;1561.60;;;;;;4953674;29;20026;-77
2022/06/25 08:15:19;;;;;;;7.15;5.35;;;768.70;1587.20;;;;;;4953975;28;20389;-78
2022/06/25 08:17:46;;;;;;;7.13;4.40;;;768.80;1612.80;;;;;;4953640;29;20023;-77
2022/06/25 08:20:11;;;;;;;9.68;5.10;;;768.90;1561.60;;;;;;4953097;28;20429;-75
2022/06/25 08:22:37;;;;;;;8.35;4.85;;;768.80;1510.40;;;;;;4953573;29;20027;-76
2022/06/25 08:25:04;;;;;;;12.25;5.18;;;768.80;1561.60;;;;;;4953648;29;20059;-76
2022/06/25 08:27:31;;;;;;;11.18;5.50;;;768.60;1638.40;;;;;;4953703;28;20039;-77
2022/06/25 08:29:57;;;;;;;8.50;5.03;;;768.80;1612.80;;;;;;4936756;29;20031;-76
2022/06/25 08:45:21;;;;;;;;;;;768.70;1510.40;;;;;;5130390;27;20396;-77
2022/06/25 08:47:47;;;;;;;;;;;794.20;1510.40;;;;;;5119014;27;19911;-75
2022/06/25 08:50:15;;;;;;;7.05;5.28;;;794.10;1484.80;;;;;;5119797;28;20323;-75
2022/06/25 08:52:49;;;;;;;8.40;5.10;;;794.20;1536.00;;;;;;5113066;27;20476;-78
2022/06/25 08:55:29;;;;;;;7.38;5.10;;;794.00;1510.40;;;;;;5109586;28;20031;-79
2022/06/25 08:57:56;;;;;;;11.45;5.10;;;794.10;1536.00;;;;;;5108018;28;20019;-77
2022/06/25 09:00:22;;;;;;;7.57;5.30;;;794.20;1510.40;;;;;;5109410;28;20028;-79
2022/06/25 09:02:49;;;;;;;8.48;5.35;;;794.20;1484.80;;;;;;5106900;28;20024;-77
2022/06/25 09:05:14;;;;;;;8.55;5.00;;;794.20;1484.80;;;;;;5108025;28;20020;-79
2022/06/25 09:07:53;;;;;;;9.18;5.13;;;794.10;1484.80;;;;;;5109384;28;20023;-78
2022/06/25 09:10:20;;;;;;;8.35;4.80;;;794.20;1484.80;;;;;;5109050;28;20077;-79
2022/06/25 09:12:58;;;;;;;6.32;4.95;;;794.20;1433.60;;;;;;5107903;28;20117;-78
2022/06/25 09:15:27;;;;;;;5.57;4.53;;;794.20;1433.60;;;;;;5096012;28;20023;-79
2022/06/25 09:17:53;;;;;;;9.85;4.78;;;794.40;1459.20;;;;;;5107802;28;20027;-79
2022/06/25 09:20:20;;;;;;;6.47;4.53;;;794.50;1433.60;;;;;;5098751;28;20028;-77
2022/06/25 09:23:02;;;;;;;7.88;5.10;;;819.30;1433.60;;;;;;5098892;28;20497;-79
2022/06/25 09:25:31;;;;;;;7.05;5.15;;;819.20;1382.40;;;;;;5098001;28;20524;-78
2022/06/25 09:27:57;;;;;;;11.63;5.15;;;819.20;1408.00;;;;;;5103090;28;20019;-78
2022/06/25 09:30:26;;;;;;;9.82;4.95;;;819.30;1408.00;;;;;;5108560;28;20027;-78
2022/06/25 09:33:01;;;;;;;7.80;4.80;;;819.30;1408.00;;;;;;5099405;28;20034;-77
2022/06/25 09:35:42;;;;;;;7.05;4.63;;;819.40;1356.80;;;;;;5103625;28;20050;-79
2022/06/25 09:38:14;;;;;;;8.50;4.65;;;819.80;1356.80;;;;;;5107237;28;20085;-77
2022/06/25 09:40:57;;;;;;;7.38;4.45;;;819.80;1331.20;;;;;;5097842;28;20541;-78
2022/06/25 09:43:35;;;;;;;8.93;4.30;;;819.90;1356.80;;;;;;5094664;28;20500;-78
2022/06/25 09:46:06;;;;;;;7.60;4.75;;;820.10;1356.80;;;;;;5089069;28;20469;-77
2022/06/25 09:48:34;;;;;;;7.40;5.18;;;844.80;1356.80;;;;;;5094988;28;20016;-78
2022/06/25 09:51:16;;;;;;;11.50;4.57;;;844.90;1382.40;;;;;;5093669;28;20421;-78
2022/06/25 09:53:48;;;;;;;6.90;4.90;;;845.10;1331.20;;;;;;5094955;28;20058;-79
2022/06/25 09:56:22;;;;;;;7.55;4.72;;;845.10;1331.20;;;;;;5093761;28;20016;-78
2022/06/25 09:58:49;;;;;;;11.55;3.95;;;845.20;1305.60;;;;;;5093521;28;20030;-78
2022/06/25 10:01:18;;;;;;;8.00;5.10;;;845.40;1305.60;;;;;;5093355;28;20381;-79
2022/06/25 10:03:46;;;;;;;11.55;5.43;;;845.50;1305.60;;;;;;5093399;28;20024;-78
2022/06/25 10:06:16;;;;;;;7.20;4.82;;;845.50;1280.00;;;;;;5094577;28;20016;-79
2022/06/25 10:08:50;;;;;;;9.73;4.88;;;845.50;1305.60;;;;;;5094433;28;20024;-78
2022/06/25 10:11:25;;;;;;;8.32;4.18;;;845.10;1280.00;;;;;;5094131;28;20095;-78
2022/06/25 10:13:52;;;;;;;11.07;4.22;;;844.80;1280.00;;;;;;5093058;28;20054;-79
2022/06/25 10:16:19;;;;;;;14.48;5.32;;;819.90;1305.60;;;;;;5094244;28;20021;-79
2022/06/25 10:18:45;;;;;;;9.15;5.07;;;819.60;1356.80;;;;;;5093291;28;20021;-79
2022/06/25 10:21:15;;;;;;;8.68;5.18;;;819.40;1356.80;;;;;;5086411;28;20036;-78
2022/06/25 10:23:42;;;;;;;8.98;6.05;;;794.50;1382.40;;;;;;5083497;28;20040;-78
2022/06/25 10:26:09;;;;;;;15.90;5.40;;;794.40;1408.00;;;;;;5083281;28;20036;-78
2022/06/25 10:28:35;;;;;;;10.02;5.10;;;794.20;1408.00;;;;;;5082239;28;20028;-79
2022/06/25 10:31:06;;;;;;;7.90;4.32;;;794.00;1433.60;;;;;;5081844;28;20024;-76
2022/06/25 10:33:50;;;;;;;7.78;4.85;;;794.00;1433.60;;;;;;5083177;28;20028;-78
2022/06/25 10:36:16;;;;;;;8.40;5.20;;;793.80;1459.20;;;;;;5088217;28;20020;-79
2022/06/25 10:38:42;;;;;;;8.50;5.20;;;793.70;1459.20;;;;;;5092232;28;20046;-78
2022/06/25 10:43:58;;;;;;;15.98;5.50;;;793.60;1484.80;;;;;;5083759;28;20075;-77
2022/06/25 10:46:29;;;;;;;7.15;4.82;;;768.90;1459.20;;;;;;5087770;28;20415;-78
2022/06/25 10:49:22;;;;;;;9.40;4.80;;;768.80;1484.80;;;;;;5087977;28;20021;-76
2022/06/25 10:51:49;;;;;;;9.75;4.75;;;768.60;1484.80;;;;;;5083104;28;20024;-79
2022/06/25 10:54:24;;;;;;;12.52;5.03;;;768.40;1510.40;;;;;;5084027;28;20043;-78
2022/06/25 10:56:55;;;;;;;17.27;6.28;;;768.10;1664.00;;;;;;5081029;28;20549;-79
2022/06/25 10:59:37;;;;;;;17.65;7.60;;;742.60;2150.40;;;;;;5081623;28;20161;-79
2022/06/25 11:02:05;;;;;;;24.30;8.02;;;717.00;2432.00;;;;;;5081937;28;20039;-79
2022/06/25 11:04:32;;;;;;;13.93;7.80;;;691.90;2432.00;;;;;;5082093;28;20024;-78
2022/06/25 11:07:11;;;;;;;25.00;9.77;;;691.50;2432.00;;;;;;5081520;28;20111;-78
2022/06/25 11:09:39;;;;;;;20.63;7.03;;;666.30;2432.00;;;;;;5081283;28;20020;-78
2022/06/25 11:12:08;;;;;;;11.82;7.50;;;666.30;2432.00;;;;;;5080797;28;20020;-78
2022/06/25 11:14:34;;;;;;;15.10;9.35;;;665.70;2432.00;;;;;;5081632;28;20548;-78
2022/06/25 11:17:10;;;;;;;21.42;8.80;;;666.00;2432.00;;;;;;5083033;28;20023;-78
2022/06/25 11:19:40;;;;;;;13.27;9.80;;;666.00;2432.00;;;;;;5080473;28;20039;-77
2022/06/25 11:22:06;;;;;;;20.13;11.07;;;666.20;2432.00;;;;;;5081932;28;20070;-79
2022/06/25 11:24:33;;;;;;;17.33;9.18;;;666.30;2432.00;;;;;;5081786;28;20052;-79
2022/06/25 11:29:53;;;;;;;14.00;7.95;;;691.70;2432.00;;;;;;5083754;28;20099;-79
2022/06/25 11:32:23;;;;;;;10.98;6.90;;;691.90;2432.00;;;;;;5081007;28;20024;-79
2022/06/25 11:34:53;;;;;;;14.43;8.45;;;716.80;2432.00;;;;;;5079838;28;20040;-80
2022/06/25 11:37:20;;;;;;;12.98;5.45;;;716.80;2432.00;;;;;;5081117;28;20024;-78
2022/06/25 11:39:47;;;;;;;11.55;4.70;;;692.10;2432.00;;;;;;5083095;28;20052;-78
2022/06/25 11:42:14;;;;;;;9.00;4.20;;;692.00;2432.00;;;;;;5081625;28;20036;-81
2022/06/25 11:44:53;;;;;;;10.32;4.70;;;692.00;2432.00;;;;;;5079940;28;20044;-77
2022/06/25 11:47:20;;;;;;;9.32;4.20;;;692.00;2432.00;;;;;;5080916;28;20028;-78
2022/06/25 11:49:47;;;;;;;10.52;4.30;;;692.00;2432.00;;;;;;5080308;28;20023;-81
2022/06/25 11:52:14;;;;;;;10.50;3.92;;;716.90;2432.00;;;;;;5083566;28;20032;-80
2022/06/25 11:54:42;;;;;;;9.98;4.15;;;717.10;2432.00;;;;;;5084302;28;20429;-83
2022/06/25 11:57:10;;;;;;;7.32;3.20;;;717.10;2432.00;;;;;;5080723;28;20020;-81
2022/06/25 11:59:37;;;;;;;8.50;3.30;;;717.30;2432.00;;;;;;5082426;28;20101;-80
2022/06/25 12:02:07;;;;;;;8.93;3.17;;;717.50;2432.00;;;;;;5081192;28;20056;-82
2022/06/25 12:04:57;;;;;;;9.25;2.45;;;742.40;2201.60;;;;;;5083685;28;20107;-82
2022/06/25 12:07:31;;;;;;;10.20;3.25;;;742.70;2124.80;;;;;;5082128;28;20555;-82
2022/06/25 12:10:05;;;;;;;8.75;2.63;;;742.90;2124.80;;;;;;5082251;28;20016;-83
2022/06/25 12:12:33;;;;;;;5.15;2.38;;;768.10;2073.60;;;;;;5085453;28;20105;-82
2022/06/25 12:15:01;;;;;;;9.13;3.53;;;768.60;1971.20;;;;;;5086996;28;20029;-83
2022/06/25 12:17:38;;;;;;;9.48;3.08;;;768.90;1715.20;;;;;;5080353;28;20054;-82
2022/06/25 12:20:12;;;;;;;7.45;2.30;;;793.80;1740.80;;;;;;5081068;28;20020;-83
2022/06/25 12:22:41;;;;;;;6.63;2.65;;;794.20;1664.00;;;;;;5088049;28;20017;-80
2022/06/25 12:25:09;;;;;;;7.75;3.67;;;794.30;1561.60;;;;;;5084126;28;20110;-78
2022/06/25 12:27:49;;;;;;;8.02;3.20;;;819.20;1664.00;;;;;;5080063;28;20107;-82
2022/06/25 12:30:26;;;;;;;12.00;3.70;;;794.20;1459.20;;;;;;5078308;28;20017;-83
2022/06/25 12:32:53;;;;;;;5.25;2.58;;;794.30;1638.40;;;;;;5083992;28;20027;-81
2022/06/25 12:35:19;;;;;;;7.10;2.72;;;794.30;1510.40;;;;;;5083958;28;20016;-82
2022/06/25 12:38:06;;;;;;;9.38;3.10;;;794.20;1382.40;;;;;;5081600;28;20536;-80